Terminal Aerodrome Forecast
Issued by NWS

Home | Current Version | Previous Version | Text Only | Print | Product List | Glossary On
Versions: 1 2 3 4 5 6 7 8 9 10 11 12 13 14 15 16
581
FTUS41 KBTV 022320
TAFSLK
TAF
KSLK 022320Z 0300/0324 VRB03KT P6SM SCT006 OVC015
      TEMPO 0300/0303 BKN007
     FM031500 05004KT P6SM BKN050=

USA.gov is the U.S. government's official web portal to all federal, state and local government web resources and services.